createdAt,value
2018-11-01T00:00:02.639Z,6.01
2018-11-01T00:02:31.073Z,5.95
2018-11-01T00:04:59.497Z,5.93
2018-11-01T00:07:27.972Z,5.91
2018-11-01T00:09:56.383Z,5.90
2018-11-01T00:12:24.811Z,5.88
2018-11-01T00:14:53.212Z,5.88
2018-11-01T00:17:21.642Z,5.80
2018-11-01T00:19:50.028Z,5.78
2018-11-01T00:22:18.478Z,5.73
2018-11-01T00:24:46.904Z,5.67
2018-11-01T00:27:15.343Z,5.60
2018-11-01T00:29:43.765Z,5.48
2018-11-01T00:32:12.199Z,5.39
2018-11-01T00:34:40.605Z,5.35
2018-11-01T00:37:09.024Z,5.33
2018-11-01T00:39:37.437Z,5.33
2018-11-01T00:42:06.297Z,5.33
2018-11-01T00:44:34.903Z,5.26
2018-11-01T00:47:03.331Z,5.14
2018-11-01T00:49:31.731Z,5.02
2018-11-01T00:52:00.173Z,4.92
2018-11-01T00:54:28.594Z,4.84
2018-11-01T00:56:57.035Z,4.77
2018-11-01T00:59:25.454Z,4.70
2018-11-01T01:01:53.900Z,4.62
2018-11-01T01:04:22.312Z,4.57
2018-11-01T01:06:50.727Z,4.53
2018-11-01T01:09:19.182Z,4.47
2018-11-01T01:11:47.591Z,4.38
2018-11-01T01:14:16.042Z,4.37
2018-11-01T01:16:44.462Z,4.30
2018-11-01T01:19:12.895Z,4.20
2018-11-01T01:21:41.316Z,4.08
2018-11-01T01:24:09.795Z,3.96
2018-11-01T01:26:38.228Z,3.89
2018-11-01T01:29:06.802Z,3.81
2018-11-01T01:31:35.257Z,3.79
2018-11-01T01:34:03.701Z,3.74
2018-11-01T01:36:32.141Z,3.73
2018-11-01T01:39:00.584Z,3.68
2018-11-01T01:41:28.999Z,3.63
2018-11-01T01:43:57.468Z,3.54
2018-11-01T01:46:25.891Z,3.43
2018-11-01T01:48:54.317Z,3.37
2018-11-01T01:51:22.719Z,3.28
2018-11-01T01:53:51.156Z,3.20
2018-11-01T01:56:19.568Z,3.24
2018-11-01T01:58:48.022Z,3.26
2018-11-01T02:01:17.533Z,3.32
2018-11-01T02:03:45.972Z,3.36
2018-11-01T02:06:14.389Z,3.43
2018-11-01T02:08:43.044Z,3.48
2018-11-01T02:11:11.463Z,3.49
2018-11-01T02:13:39.898Z,3.47
2018-11-01T02:16:08.339Z,3.42
2018-11-01T02:18:36.774Z,3.39
2018-11-01T02:21:05.751Z,3.39
2018-11-01T02:23:34.197Z,3.38
2018-11-01T02:26:02.643Z,3.37
2018-11-01T02:28:31.104Z,3.33
2018-11-01T02:30:59.528Z,3.31
2018-11-01T02:33:27.959Z,3.29
2018-11-01T02:35:56.389Z,3.26
2018-11-01T02:38:24.863Z,3.18
2018-11-01T02:40:53.302Z,3.04
2018-11-01T02:43:21.783Z,2.86
2018-11-01T02:45:50.197Z,2.78
2018-11-01T02:48:18.630Z,2.71
2018-11-01T02:50:47.038Z,2.63
2018-11-01T02:53:15.497Z,2.64
2018-11-01T02:55:43.923Z,2.64
2018-11-01T02:58:12.363Z,2.62
2018-11-01T03:00:40.778Z,2.56
2018-11-01T03:03:09.212Z,2.55
2018-11-01T03:05:37.624Z,2.58
2018-11-01T03:08:06.315Z,2.61
2018-11-01T03:10:34.753Z,2.63
2018-11-01T03:13:03.191Z,2.70
2018-11-01T03:15:31.613Z,2.88
2018-11-01T03:18:00.044Z,3.20
2018-11-01T03:20:28.478Z,3.39
2018-11-01T03:22:57.761Z,3.51
2018-11-01T03:25:26.163Z,3.59
2018-11-01T03:27:54.609Z,3.61
2018-11-01T03:30:23.037Z,3.55
2018-11-01T03:32:51.486Z,3.49
2018-11-01T03:35:19.913Z,3.44
2018-11-01T03:37:48.373Z,3.36
2018-11-01T03:40:16.775Z,3.24
2018-11-01T03:42:45.252Z,3.12
2018-11-01T03:45:14.044Z,3.07
2018-11-01T03:47:42.994Z,3.00
2018-11-01T03:50:12.181Z,2.96
2018-11-01T03:52:40.623Z,2.95
2018-11-01T03:55:10.507Z,2.94
2018-11-01T03:57:38.939Z,2.91
2018-11-01T04:00:10.231Z,2.84
2018-11-01T04:02:38.701Z,2.80
2018-11-01T04:05:07.147Z,2.77
2018-11-01T04:07:35.574Z,2.76
2018-11-01T04:10:04.723Z,2.77
2018-11-01T04:12:33.144Z,2.77
2018-11-01T04:15:01.633Z,2.77
2018-11-01T04:17:30.021Z,2.74
2018-11-01T04:19:58.498Z,2.68
2018-11-01T04:22:26.930Z,2.60
2018-11-01T04:24:55.358Z,2.48
2018-11-01T04:27:23.757Z,2.41
2018-11-01T04:29:52.198Z,2.34
2018-11-01T04:32:20.624Z,2.30
2018-11-01T04:34:49.084Z,2.29
2018-11-01T04:37:17.511Z,2.39
2018-11-01T04:39:45.960Z,2.38
2018-11-01T04:42:14.391Z,2.33
2018-11-01T04:44:42.832Z,2.26
2018-11-01T04:47:11.341Z,2.13
2018-11-01T04:49:39.741Z,2.02
2018-11-01T04:52:08.211Z,1.98
2018-11-01T04:54:36.655Z,1.97
2018-11-01T04:57:05.040Z,1.94
2018-11-01T04:59:33.474Z,2.00
2018-11-01T05:02:01.914Z,2.03
2018-11-01T05:04:30.354Z,2.04
2018-11-01T05:06:58.854Z,2.02
2018-11-01T05:09:27.276Z,2.04
2018-11-01T05:11:55.704Z,2.14
2018-11-01T05:14:24.138Z,2.21
2018-11-01T05:16:52.557Z,2.31
2018-11-01T05:19:21.012Z,2.42
2018-11-01T05:21:49.432Z,2.57
2018-11-01T05:24:17.881Z,2.61
2018-11-01T05:26:46.333Z,2.46
2018-11-01T05:29:14.794Z,2.25
2018-11-01T05:31:43.229Z,2.08
2018-11-01T05:34:11.671Z,1.94
2018-11-01T05:36:40.096Z,1.81
2018-11-01T05:39:10.228Z,1.64
2018-11-01T05:41:38.663Z,1.57
2018-11-01T05:44:07.191Z,1.48
2018-11-01T05:46:35.606Z,1.46
2018-11-01T05:49:04.054Z,1.57
2018-11-01T05:51:32.497Z,1.73
2018-11-01T05:54:00.909Z,1.87
2018-11-01T05:56:29.367Z,2.00
2018-11-01T05:58:57.773Z,2.15
2018-11-01T06:01:32.472Z,2.18
2018-11-01T06:04:01.035Z,2.28
2018-11-01T06:06:29.478Z,2.31
2018-11-01T06:08:57.931Z,2.37
2018-11-01T06:11:26.373Z,2.31
2018-11-01T06:13:54.820Z,2.20
2018-11-01T06:16:23.261Z,2.06
2018-11-01T06:18:51.718Z,2.01
2018-11-01T06:21:20.189Z,1.97
2018-11-01T06:23:48.606Z,1.90
2018-11-01T06:26:17.669Z,1.84
2018-11-01T06:28:46.107Z,1.78
2018-11-01T06:31:14.573Z,1.71
2018-11-01T06:33:43.009Z,1.72
2018-11-01T06:36:14.651Z,1.76
2018-11-01T06:38:43.091Z,1.76
2018-11-01T06:41:11.538Z,1.73
2018-11-01T06:43:40.013Z,1.65
2018-11-01T06:46:08.480Z,1.51
2018-11-01T06:48:36.938Z,1.43
2018-11-01T06:51:05.847Z,1.42
2018-11-01T06:53:34.266Z,1.51
2018-11-01T06:56:02.681Z,1.66
2018-11-01T06:58:31.247Z,1.82
2018-11-01T07:00:59.568Z,1.98
2018-11-01T07:03:28.025Z,2.10
2018-11-01T07:05:56.464Z,2.20
2018-11-01T07:08:24.933Z,2.26
2018-11-01T07:10:53.395Z,2.35
2018-11-01T07:13:21.831Z,2.51
2018-11-01T07:15:50.262Z,2.66
2018-11-01T07:18:18.703Z,2.79
2018-11-01T07:20:47.130Z,2.88
2018-11-01T07:23:15.588Z,2.91
2018-11-01T07:25:44.036Z,2.96
2018-11-01T07:28:12.486Z,3.09
2018-11-01T07:30:40.905Z,3.30
2018-11-01T07:33:09.352Z,3.52
2018-11-01T07:35:37.770Z,3.70
2018-11-01T07:38:06.477Z,3.87
2018-11-01T07:40:34.906Z,4.07
2018-11-01T07:43:03.407Z,4.28
2018-11-01T07:45:31.841Z,4.49
2018-11-01T07:48:00.294Z,4.63
2018-11-01T07:50:28.728Z,4.69
2018-11-01T07:52:57.284Z,4.67
2018-11-01T07:55:25.644Z,4.67
2018-11-01T07:57:54.101Z,4.71
2018-11-01T08:00:22.508Z,4.80
2018-11-01T08:02:50.947Z,4.88
2018-11-01T08:05:19.352Z,4.92
2018-11-01T08:07:47.813Z,5.06
2018-11-01T08:10:18.369Z,5.19
2018-11-01T08:12:47.621Z,5.34
2018-11-01T08:15:17.614Z,5.49
2018-11-01T08:17:46.050Z,5.74
2018-11-01T08:20:15.402Z,5.92
2018-11-01T08:22:43.648Z,6.13
2018-11-01T08:25:12.764Z,6.25
2018-11-01T08:27:41.860Z,6.33
2018-11-01T08:30:13.470Z,6.38
2018-11-01T08:32:41.895Z,6.47
2018-11-01T08:35:11.392Z,6.49
2018-11-01T08:37:40.563Z,6.56
2018-11-01T08:40:09.709Z,6.54
2018-11-01T08:42:38.389Z,6.59
2018-11-01T08:45:08.953Z,6.64
2018-11-01T08:47:37.676Z,6.63
2018-11-01T08:50:07.285Z,6.62
2018-11-01T08:52:35.661Z,6.52
2018-11-01T08:55:04.105Z,6.47
2018-11-01T08:57:32.511Z,6.53
2018-11-01T09:00:00.959Z,6.56
2018-11-01T09:02:29.390Z,6.56
2018-11-01T09:04:57.821Z,6.58
2018-11-01T09:07:26.255Z,6.64
2018-11-01T09:09:54.740Z,6.75
2018-11-01T09:12:23.149Z,6.87
2018-11-01T09:14:51.594Z,7.01
2018-11-01T09:17:20.005Z,7.14
2018-11-01T09:19:48.468Z,7.26
2018-11-01T09:22:16.903Z,7.37
2018-11-01T09:24:45.596Z,7.55
2018-11-01T09:27:14.026Z,7.74
2018-11-01T09:29:42.467Z,7.88
2018-11-01T09:32:10.885Z,7.94
2018-11-01T09:34:39.322Z,8.03
2018-11-01T09:37:07.750Z,8.06
2018-11-01T09:39:36.225Z,8.09
2018-11-01T09:42:04.757Z,8.05
2018-11-01T09:44:33.195Z,8.06
2018-11-01T09:47:01.950Z,8.03
2018-11-01T09:49:30.131Z,8.07
2018-11-01T09:51:58.560Z,8.10
2018-11-01T09:54:27.176Z,8.19
2018-11-01T09:56:55.633Z,8.27
2018-11-01T09:59:24.060Z,8.27
2018-11-01T10:01:52.544Z,8.31
2018-11-01T10:04:20.964Z,8.35
2018-11-01T10:06:49.471Z,8.41
2018-11-01T10:09:17.864Z,8.53
2018-11-01T10:11:46.311Z,8.68
2018-11-01T10:14:14.721Z,8.88
2018-11-01T10:16:43.341Z,9.04
2018-11-01T10:19:11.877Z,9.04
2018-11-01T10:21:40.341Z,8.88
2018-11-01T10:24:09.189Z,8.83
2018-11-01T10:26:37.634Z,8.85
2018-11-01T10:29:06.080Z,8.98
2018-11-01T10:31:34.527Z,9.05
2018-11-01T10:34:03.069Z,9.26
2018-11-01T10:36:31.521Z,9.29
2018-11-01T10:38:59.941Z,9.38
2018-11-01T10:41:28.395Z,9.35
2018-11-01T10:43:56.857Z,9.48
2018-11-01T10:46:25.330Z,9.37
2018-11-01T10:48:53.766Z,9.29
2018-11-01T10:51:22.224Z,9.35
2018-11-01T10:53:50.711Z,9.42
2018-11-01T10:56:19.092Z,9.51
2018-11-01T10:58:47.545Z,9.67
2018-11-01T11:01:21.209Z,9.85
2018-11-01T11:03:49.659Z,9.92
2018-11-01T11:06:18.170Z,9.97
2018-11-01T11:08:46.586Z,10.12
2018-11-01T11:11:15.018Z,10.23
2018-11-01T11:13:43.468Z,10.28
2018-11-01T11:16:11.887Z,10.30
2018-11-01T11:18:40.363Z,10.31
2018-11-01T11:21:09.117Z,10.22
2018-11-01T11:23:37.293Z,10.24
2018-11-01T11:26:05.740Z,10.27
2018-11-01T11:28:34.223Z,10.35
2018-11-01T11:31:02.647Z,10.43
2018-11-01T11:33:31.106Z,10.48
2018-11-01T11:35:59.713Z,10.49
2018-11-01T11:38:28.003Z,10.57
2018-11-01T11:40:56.425Z,10.55
2018-11-01T11:43:24.919Z,10.54
2018-11-01T11:45:53.355Z,10.63
2018-11-01T11:48:21.805Z,10.68
2018-11-01T11:50:50.235Z,10.72
2018-11-01T11:53:18.688Z,10.78
2018-11-01T11:55:47.136Z,10.71
2018-11-01T11:58:15.613Z,10.70
2018-11-01T12:00:44.065Z,10.67
2018-11-01T12:03:12.491Z,10.72
2018-11-01T12:05:40.964Z,10.71
2018-11-01T12:08:09.456Z,10.79
2018-11-01T12:10:37.919Z,10.84
2018-11-01T12:13:06.534Z,10.90
2018-11-01T12:15:35.020Z,10.89
2018-11-01T12:18:03.459Z,10.86
2018-11-01T12:20:31.905Z,10.92
2018-11-01T12:23:00.353Z,10.96
2018-11-01T12:25:28.796Z,10.98
2018-11-01T12:27:57.231Z,10.95
2018-11-01T12:30:25.662Z,10.93
2018-11-01T12:32:54.088Z,10.93
2018-11-01T12:35:22.563Z,10.94
2018-11-01T12:37:51.023Z,11.00
2018-11-01T12:40:19.464Z,11.04
2018-11-01T12:42:47.898Z,10.95
2018-11-01T12:45:16.353Z,10.89
2018-11-01T12:47:44.795Z,10.79
2018-11-01T12:50:14.416Z,10.75
2018-11-01T12:52:42.866Z,10.72
2018-11-01T12:55:11.653Z,10.73
2018-11-01T12:57:40.084Z,10.77
2018-11-01T13:00:10.160Z,10.74
2018-11-01T13:02:38.728Z,10.74
2018-11-01T13:05:07.111Z,10.72
2018-11-01T13:07:35.549Z,10.72
2018-11-01T13:10:04.029Z,10.67
2018-11-01T13:12:32.509Z,10.63
2018-11-01T13:15:00.934Z,10.63
2018-11-01T13:17:29.381Z,10.65
2018-11-01T13:19:57.813Z,10.63
2018-11-01T13:22:26.272Z,10.63
2018-11-01T13:24:54.715Z,10.62
2018-11-01T13:27:23.164Z,10.61
2018-11-01T13:29:51.614Z,10.63
2018-11-01T13:32:20.057Z,10.66
2018-11-01T13:34:48.582Z,10.66
2018-11-01T13:37:16.970Z,10.63
2018-11-01T13:39:45.579Z,10.62
2018-11-01T13:42:13.933Z,10.59
2018-11-01T13:44:42.353Z,10.53
2018-11-01T13:47:12.887Z,10.51
2018-11-01T13:49:42.328Z,10.43
2018-11-01T13:52:12.238Z,10.35
2018-11-01T13:54:42.962Z,10.31
2018-11-01T13:57:11.512Z,10.28
2018-11-01T13:59:39.989Z,10.23
2018-11-01T14:02:08.405Z,10.22
2018-11-01T14:04:36.871Z,10.23
2018-11-01T14:07:05.496Z,10.26
2018-11-01T14:09:33.969Z,10.29
2018-11-01T14:12:02.387Z,10.35
2018-11-01T14:14:31.287Z,10.42
2018-11-01T14:16:59.292Z,10.46
2018-11-01T14:19:27.760Z,10.48
2018-11-01T14:21:56.185Z,10.37
2018-11-01T14:24:24.674Z,10.32
2018-11-01T14:26:53.072Z,10.27
2018-11-01T14:29:21.508Z,10.19
2018-11-01T14:31:49.930Z,10.14
2018-11-01T14:34:18.370Z,10.07
2018-11-01T14:36:46.788Z,9.98
2018-11-01T14:39:15.220Z,9.87
2018-11-01T14:41:43.640Z,9.82
2018-11-01T14:44:12.137Z,9.75
2018-11-01T14:46:40.572Z,9.72
2018-11-01T14:49:08.984Z,9.71
2018-11-01T14:51:37.428Z,9.68
2018-11-01T14:54:06.639Z,9.60
2018-11-01T14:56:36.063Z,9.57
2018-11-01T14:59:04.596Z,9.55
2018-11-01T15:01:31.285Z,9.53
2018-11-01T15:03:59.721Z,9.49
2018-11-01T15:06:28.221Z,9.41
2018-11-01T15:08:56.628Z,9.33
2018-11-01T15:11:25.074Z,9.26
2018-11-01T15:13:53.493Z,9.18
2018-11-01T15:16:21.947Z,9.15
2018-11-01T15:18:50.613Z,9.15
2018-11-01T15:21:19.113Z,9.16
2018-11-01T15:23:47.609Z,9.13
2018-11-01T15:26:16.252Z,9.07
2018-11-01T15:28:44.634Z,9.00
2018-11-01T15:31:13.076Z,8.93
2018-11-01T15:33:41.666Z,8.90
2018-11-01T15:36:10.003Z,8.87
2018-11-01T15:38:38.433Z,8.82
2018-11-01T15:41:10.963Z,8.79
2018-11-01T15:43:39.809Z,8.74
2018-11-01T15:46:08.952Z,8.70
2018-11-01T15:48:37.379Z,8.65
2018-11-01T15:51:06.749Z,8.60
2018-11-01T15:53:35.165Z,8.56
2018-11-01T15:56:03.629Z,8.56
2018-11-01T15:58:32.098Z,8.57
2018-11-01T16:01:00.536Z,8.60
2018-11-01T16:03:29.045Z,8.58
2018-11-01T16:05:57.434Z,8.50
2018-11-01T16:08:25.901Z,8.46
2018-11-01T16:10:54.364Z,8.50
2018-11-01T16:13:22.861Z,8.52
2018-11-01T16:15:51.284Z,8.59
2018-11-01T16:18:19.745Z,8.60
2018-11-01T16:20:48.162Z,8.65
2018-11-01T16:23:16.639Z,8.67
2018-11-01T16:25:45.093Z,8.70
2018-11-01T16:28:13.576Z,8.74
2018-11-01T16:30:41.991Z,8.74
2018-11-01T16:33:10.430Z,8.78
2018-11-01T16:35:38.847Z,8.81
2018-11-01T16:38:07.301Z,8.85
2018-11-01T16:40:35.734Z,8.85
2018-11-01T16:43:04.194Z,8.84
2018-11-01T16:45:32.631Z,8.81
2018-11-01T16:48:01.117Z,8.77
2018-11-01T16:50:29.549Z,8.72
2018-11-01T16:52:58.007Z,8.74
2018-11-01T16:55:26.428Z,8.72
2018-11-01T16:57:54.878Z,8.72
2018-11-01T17:00:23.321Z,8.72
2018-11-01T17:02:51.776Z,8.71
2018-11-01T17:05:20.213Z,8.69
2018-11-01T17:07:48.640Z,8.67
2018-11-01T17:10:19.602Z,8.67
2018-11-01T17:12:48.019Z,8.69
2018-11-01T17:15:16.538Z,8.67
2018-11-01T17:17:45.601Z,8.63
2018-11-01T17:20:14.135Z,8.60
2018-11-01T17:22:43.015Z,8.56
2018-11-01T17:25:11.524Z,8.55
2018-11-01T17:27:39.913Z,8.56
2018-11-01T17:30:09.319Z,8.52
2018-11-01T17:32:43.130Z,8.52
2018-11-01T17:35:11.608Z,8.56
2018-11-01T17:37:40.031Z,8.58
2018-11-01T17:40:08.972Z,8.57
2018-11-01T17:42:37.457Z,8.54
2018-11-01T17:45:06.953Z,8.48
2018-11-01T17:47:35.392Z,8.47
2018-11-01T17:50:04.210Z,8.47
2018-11-01T17:52:32.633Z,8.43
2018-11-01T17:55:01.126Z,8.41
2018-11-01T17:57:29.544Z,8.41
2018-11-01T17:59:57.982Z,8.40
2018-11-01T18:02:26.613Z,8.38
2018-11-01T18:04:54.981Z,8.34
2018-11-01T18:07:23.449Z,8.32
2018-11-01T18:09:51.876Z,8.34
2018-11-01T18:12:20.373Z,8.33
2018-11-01T18:14:48.785Z,8.29
2018-11-01T18:17:17.247Z,8.24
2018-11-01T18:19:45.681Z,8.18
2018-11-01T18:22:14.137Z,8.11
2018-11-01T18:24:42.593Z,8.01
2018-11-01T18:27:11.057Z,7.89
2018-11-01T18:29:39.482Z,7.72
2018-11-01T18:32:08.096Z,7.58
2018-11-01T18:34:36.437Z,7.47
2018-11-01T18:37:04.972Z,7.37
2018-11-01T18:39:33.551Z,7.33
2018-11-01T18:42:01.901Z,7.24
2018-11-01T18:44:30.349Z,7.15
2018-11-01T18:46:58.824Z,7.09
2018-11-01T18:49:27.243Z,7.01
2018-11-01T18:51:55.706Z,6.92
2018-11-01T18:54:24.189Z,6.88
2018-11-01T18:56:52.626Z,6.86
2018-11-01T18:59:21.066Z,6.78
2018-11-01T19:01:49.517Z,6.74
2018-11-01T19:04:17.961Z,6.68
2018-11-01T19:06:46.396Z,6.63
2018-11-01T19:09:14.864Z,6.60
2018-11-01T19:11:43.281Z,6.59
2018-11-01T19:14:11.761Z,6.53
2018-11-01T19:16:40.233Z,6.35
2018-11-01T19:19:08.684Z,6.15
2018-11-01T19:21:37.134Z,5.89
2018-11-01T19:24:05.659Z,5.79
2018-11-01T19:26:34.106Z,5.62
2018-11-01T19:29:02.550Z,5.50
2018-11-01T19:31:30.994Z,5.43
2018-11-01T19:33:59.505Z,5.41
2018-11-01T19:36:27.879Z,5.41
2018-11-01T19:38:56.344Z,5.34
2018-11-01T19:41:24.780Z,5.39
2018-11-01T19:43:53.273Z,5.39
2018-11-01T19:46:21.708Z,5.36
2018-11-01T19:48:50.151Z,5.24
2018-11-01T19:51:18.579Z,5.11
2018-11-01T19:53:47.044Z,5.05
2018-11-01T19:56:15.467Z,4.86
2018-11-01T19:58:43.953Z,4.74
2018-11-01T20:01:12.377Z,4.64
2018-11-01T20:03:41.623Z,4.63
2018-11-01T20:06:10.041Z,4.65
2018-11-01T20:08:38.513Z,4.70
2018-11-01T20:11:06.965Z,4.72
2018-11-01T20:13:35.451Z,4.62
2018-11-01T20:16:03.870Z,4.55
2018-11-01T20:18:32.403Z,4.52
2018-11-01T20:21:00.753Z,4.52
2018-11-01T20:23:29.199Z,4.50
2018-11-01T20:25:57.624Z,4.54
2018-11-01T20:28:26.048Z,4.58
2018-11-01T20:30:54.526Z,4.61
2018-11-01T20:33:23.019Z,4.68
2018-11-01T20:35:51.419Z,4.65
2018-11-01T20:38:19.868Z,4.61
2018-11-01T20:40:48.309Z,4.60
2018-11-01T20:43:16.759Z,4.68
2018-11-01T20:45:45.221Z,4.63
2018-11-01T20:48:13.664Z,4.72
2018-11-01T20:50:42.120Z,4.79
2018-11-01T20:53:10.560Z,4.75
2018-11-01T20:55:38.985Z,4.78
2018-11-01T20:58:07.411Z,4.82
2018-11-01T21:00:35.997Z,4.90
2018-11-01T21:03:04.439Z,4.74
2018-11-01T21:05:32.886Z,4.60
2018-11-01T21:08:01.401Z,4.46
2018-11-01T21:10:29.900Z,4.50
2018-11-01T21:12:58.320Z,4.55
2018-11-01T21:15:26.764Z,4.59
2018-11-01T21:17:55.214Z,4.71
2018-11-01T21:20:23.661Z,4.72
2018-11-01T21:22:52.090Z,4.74
2018-11-01T21:25:20.578Z,4.81
2018-11-01T21:27:49.013Z,4.97
2018-11-01T21:30:17.493Z,5.09
2018-11-01T21:32:46.032Z,5.18
2018-11-01T21:35:14.576Z,5.26
2018-11-01T21:37:42.931Z,5.28
2018-11-01T21:40:12.012Z,5.28
2018-11-01T21:42:40.527Z,5.30
2018-11-01T21:45:10.845Z,5.29
2018-11-01T21:47:39.357Z,5.25
2018-11-01T21:50:07.825Z,5.20
2018-11-01T21:52:36.265Z,5.13
2018-11-01T21:55:04.719Z,5.07
2018-11-01T21:57:33.269Z,5.05
2018-11-01T22:00:02.061Z,5.02
2018-11-01T22:02:30.508Z,4.97
2018-11-01T22:04:58.926Z,4.92
2018-11-01T22:07:27.417Z,4.88
2018-11-01T22:09:55.853Z,4.83
2018-11-01T22:12:24.296Z,4.84
2018-11-01T22:14:52.714Z,4.86
2018-11-01T22:17:21.192Z,4.85
2018-11-01T22:19:49.609Z,4.87
2018-11-01T22:22:18.052Z,4.90
2018-11-01T22:24:46.476Z,4.92
2018-11-01T22:27:14.958Z,4.91
2018-11-01T22:29:43.389Z,4.82
2018-11-01T22:32:11.833Z,4.75
2018-11-01T22:34:40.257Z,4.67
2018-11-01T22:37:08.735Z,4.66
2018-11-01T22:39:37.181Z,4.65
2018-11-01T22:42:06.277Z,4.66
2018-11-01T22:44:34.695Z,4.68
2018-11-01T22:47:03.141Z,4.70
2018-11-01T22:49:31.548Z,4.64
2018-11-01T22:51:59.980Z,4.70
2018-11-01T22:54:28.420Z,4.71
2018-11-01T22:56:56.886Z,4.72
2018-11-01T22:59:25.328Z,4.73
2018-11-01T23:01:53.777Z,4.76
2018-11-01T23:04:22.228Z,4.76
2018-11-01T23:06:50.647Z,4.78
2018-11-01T23:09:19.119Z,4.83
2018-11-01T23:11:47.564Z,4.90
2018-11-01T23:14:16.110Z,4.95
2018-11-01T23:16:44.536Z,4.97
2018-11-01T23:19:13.302Z,5.06
2018-11-01T23:21:41.721Z,5.13
2018-11-01T23:24:10.166Z,5.19
2018-11-01T23:26:38.635Z,5.29
2018-11-01T23:29:07.078Z,5.46
2018-11-01T23:31:35.504Z,5.58
2018-11-01T23:34:04.191Z,5.69
2018-11-01T23:36:38.012Z,5.79
2018-11-01T23:39:14.084Z,5.84
2018-11-01T23:41:48.254Z,5.94
2018-11-01T23:44:22.276Z,6.03
2018-11-01T23:46:56.125Z,6.04
2018-11-01T23:49:40.619Z,6.12
2018-11-01T23:52:13.467Z,6.14
2018-11-01T23:54:41.929Z,6.10
2018-11-01T23:57:10.336Z,6.00
2018-11-01T23:59:38.800Z,5.87
